Time;durP1;ratioP1;P1;durP2;ratioP2;P2;SDS_P1;SDS_P2;PMS_P1;PMS_P2;Temp;Humidity;BMP_temperature;BMP_pressure;BME280_temperature;BME280_humidity;BME280_pressure;Samples;Min_cycle;Max_cycle;Signal;HPM_P1;HPM_P2
2024/01/31 00:02:13;;;;;;;9.00;2.00;;;7.60;99.90;;;;;;5032377;28;20025;-74
2024/01/31 00:04:39;;;;;;;8.13;1.75;;;7.60;99.90;;;;;;5032086;28;20112;-73
2024/01/31 00:07:05;;;;;;;9.38;2.13;;;7.60;99.90;;;;;;5031983;28;20057;-74
2024/01/31 00:09:32;;;;;;;8.63;1.95;;;7.60;99.90;;;;;;5013987;28;20033;-74
2024/01/31 00:11:57;;;;;;;6.72;1.80;;;7.60;99.90;;;;;;5031890;28;20025;-75
2024/01/31 00:14:23;;;;;;;7.25;1.90;;;7.60;99.90;;;;;;5017850;28;20086;-75
2024/01/31 00:16:49;;;;;;;8.32;1.90;;;7.60;99.90;;;;;;5031801;28;20037;-75
2024/01/31 00:19:17;;;;;;;10.65;2.03;;;7.60;99.90;;;;;;5031552;28;20026;-75
2024/01/31 00:21:43;;;;;;;13.52;2.13;;;7.60;99.90;;;;;;5014150;28;20025;-75
2024/01/31 00:24:09;;;;;;;8.02;2.05;;;7.60;99.90;;;;;;5031584;28;20044;-75
2024/01/31 00:26:38;;;;;;;8.60;1.98;;;7.60;99.90;;;;;;5031838;28;20041;-75
2024/01/31 00:29:04;;;;;;;5.78;1.63;;;7.60;99.90;;;;;;5031488;28;20033;-75
2024/01/31 00:31:30;;;;;;;7.70;1.75;;;7.60;99.90;;;;;;5013937;28;20559;-75
2024/01/31 00:33:55;;;;;;;7.03;1.95;;;7.60;99.90;;;;;;5031239;28;20478;-75
2024/01/31 00:36:21;;;;;;;8.10;1.70;;;7.50;99.90;;;;;;5031488;28;20032;-74
2024/01/31 00:38:47;;;;;;;6.97;2.47;;;7.50;99.90;;;;;;5031326;28;20077;-75
2024/01/31 00:41:15;;;;;;;6.10;1.85;;;7.50;99.90;;;;;;5031667;28;20029;-75
2024/01/31 00:43:41;;;;;;;9.93;1.75;;;7.60;99.90;;;;;;5031046;28;20021;-76
2024/01/31 00:46:07;;;;;;;5.95;1.83;;;7.50;99.90;;;;;;5031622;28;20033;-75
2024/01/31 00:48:35;;;;;;;6.78;2.17;;;7.50;99.90;;;;;;5012865;28;20061;-76
2024/01/31 00:51:01;;;;;;;6.40;2.00;;;7.50;99.90;;;;;;5032013;28;20021;-76
2024/01/31 00:53:26;;;;;;;6.85;2.20;;;7.50;99.90;;;;;;5030774;28;20533;-75
2024/01/31 00:55:52;;;;;;;8.65;2.03;;;7.50;99.90;;;;;;5031872;28;20021;-74
2024/01/31 00:58:18;;;;;;;3.90;1.70;;;7.50;99.90;;;;;;5030906;28;20017;-75
2024/01/31 01:00:44;;;;;;;8.63;1.80;;;7.50;99.90;;;;;;5031331;28;20026;-75
2024/01/31 01:03:10;;;;;;;8.25;2.30;;;7.50;99.90;;;;;;5031261;28;20098;-76
2024/01/31 01:05:35;;;;;;;9.40;2.47;;;7.50;99.90;;;;;;5031392;28;20178;-76
2024/01/31 01:08:02;;;;;;;8.05;2.05;;;7.50;99.90;;;;;;5031347;28;20439;-75
2024/01/31 01:10:28;;;;;;;5.15;1.67;;;7.50;99.90;;;;;;5031551;28;20025;-76
2024/01/31 01:12:58;;;;;;;11.20;1.98;;;7.50;99.90;;;;;;5031211;28;20025;-75
2024/01/31 01:15:24;;;;;;;7.47;1.65;;;7.50;99.90;;;;;;5031190;28;20064;-75
2024/01/31 01:17:50;;;;;;;6.80;1.60;;;7.50;99.90;;;;;;5031003;28;20021;-74
2024/01/31 01:20:16;;;;;;;5.28;1.48;;;7.50;99.90;;;;;;5031267;28;20117;-76
2024/01/31 01:22:45;;;;;;;10.07;1.80;;;7.50;99.90;;;;;;5030785;28;20014;-75
2024/01/31 01:25:11;;;;;;;7.75;1.70;;;7.40;99.90;;;;;;5031322;28;20403;-76
2024/01/31 01:27:37;;;;;;;6.38;1.80;;;7.40;99.90;;;;;;5013380;28;20036;-76
2024/01/31 01:30:03;;;;;;;5.60;1.30;;;7.40;99.90;;;;;;5031093;28;20025;-75
2024/01/31 01:32:29;;;;;;;7.70;1.65;;;7.40;99.90;;;;;;5031006;28;20372;-76
2024/01/31 01:34:54;;;;;;;5.65;1.77;;;7.40;99.90;;;;;;5030723;28;20060;-75
2024/01/31 01:37:20;;;;;;;7.47;1.58;;;7.40;99.90;;;;;;5031124;28;20063;-76
2024/01/31 01:39:45;;;;;;;4.60;1.30;;;7.40;99.90;;;;;;5030928;28;20022;-76
2024/01/31 01:42:14;;;;;;;10.02;1.70;;;7.40;99.90;;;;;;5031393;28;20099;-76
2024/01/31 01:44:46;;;;;;;5.55;1.83;;;7.40;99.90;;;;;;5030505;28;20045;-75
2024/01/31 01:47:13;;;;;;;5.00;1.52;;;7.40;99.90;;;;;;5017310;28;20030;-75
2024/01/31 01:49:39;;;;;;;5.32;1.10;;;7.40;99.90;;;;;;5030720;28;20022;-75
2024/01/31 01:52:07;;;;;;;7.75;2.00;;;7.30;99.90;;;;;;5030609;28;20083;-75
2024/01/31 01:54:34;;;;;;;8.02;1.88;;;7.30;99.90;;;;;;5030507;28;20036;-75
2024/01/31 01:57:02;;;;;;;3.83;1.40;;;7.30;99.90;;;;;;5030844;28;20028;-74
2024/01/31 01:59:28;;;;;;;7.15;1.65;;;7.20;99.90;;;;;;5030316;28;20034;-75
2024/01/31 02:01:54;;;;;;;7.80;1.90;;;7.20;99.90;;;;;;5034390;28;20035;-75
2024/01/31 02:04:21;;;;;;;3.50;1.40;;;7.20;99.90;;;;;;5034499;28;20025;-75
2024/01/31 02:06:47;;;;;;;5.38;1.50;;;7.20;99.90;;;;;;5034284;28;20052;-75
2024/01/31 02:09:16;;;;;;;6.60;1.73;;;7.20;99.90;;;;;;5034217;28;20034;-75
2024/01/31 02:11:42;;;;;;;11.25;1.88;;;7.20;99.90;;;;;;5034252;28;20028;-75
2024/01/31 02:14:10;;;;;;;7.90;1.63;;;7.20;99.90;;;;;;5033878;28;20029;-75
2024/01/31 02:16:36;;;;;;;7.88;1.67;;;7.30;99.90;;;;;;5033445;28;20045;-75
2024/01/31 02:19:03;;;;;;;5.97;1.73;;;7.30;99.90;;;;;;5033678;28;20049;-75
2024/01/31 02:21:31;;;;;;;6.10;1.80;;;7.30;99.90;;;;;;5034328;28;20017;-75
2024/01/31 02:23:56;;;;;;;5.95;1.65;;;7.30;99.90;;;;;;5033828;28;20025;-75
2024/01/31 02:26:25;;;;;;;8.38;2.13;;;7.30;99.90;;;;;;5034168;28;20427;-75
2024/01/31 02:28:51;;;;;;;6.32;1.77;;;7.30;99.90;;;;;;5033537;28;20465;-75
2024/01/31 02:31:17;;;;;;;6.65;2.13;;;7.30;99.90;;;;;;5034003;28;20104;-75
2024/01/31 02:33:43;;;;;;;5.45;1.98;;;7.30;99.90;;;;;;5033295;28;20493;-75
2024/01/31 02:36:08;;;;;;;6.57;1.85;;;7.30;99.90;;;;;;5033947;28;20079;-75
2024/01/31 02:38:34;;;;;;;8.70;2.08;;;7.30;99.90;;;;;;5033322;28;20021;-75
2024/01/31 02:41:00;;;;;;;5.03;1.90;;;7.30;99.90;;;;;;5015939;28;20026;-75
2024/01/31 02:43:28;;;;;;;7.20;1.90;;;7.30;99.90;;;;;;5033456;28;20517;-75
2024/01/31 02:45:54;;;;;;;7.90;2.10;;;7.30;99.90;;;;;;5033732;28;20097;-75
2024/01/31 02:48:25;;;;;;;6.18;1.77;;;7.30;99.90;;;;;;5033417;28;20053;-75
2024/01/31 02:50:51;;;;;;;9.15;2.05;;;7.30;99.90;;;;;;5033862;28;20049;-76
2024/01/31 02:53:20;;;;;;;8.90;1.95;;;7.20;99.90;;;;;;5033401;28;20398;-74
2024/01/31 02:55:45;;;;;;;6.53;1.85;;;7.20;99.90;;;;;;5033425;28;20572;-75
2024/01/31 02:58:14;;;;;;;6.32;2.28;;;7.20;99.90;;;;;;5033259;28;20096;-75
2024/01/31 03:00:39;;;;;;;8.30;2.20;;;7.20;99.90;;;;;;5033186;28;20068;-75
2024/01/31 03:03:05;;;;;;;8.10;2.30;;;7.20;99.90;;;;;;5015332;28;20485;-75
2024/01/31 03:05:34;;;;;;;6.30;2.00;;;7.20;99.90;;;;;;5033215;28;20040;-75
2024/01/31 03:07:59;;;;;;;6.65;1.70;;;7.20;99.90;;;;;;5033288;28;20021;-74
2024/01/31 03:10:25;;;;;;;5.07;2.03;;;7.20;99.90;;;;;;5033014;28;20030;-75
2024/01/31 03:12:51;;;;;;;7.35;2.30;;;7.20;99.90;;;;;;5033054;28;20017;-74
2024/01/31 03:15:16;;;;;;;6.07;2.28;;;7.20;99.90;;;;;;5032890;28;20033;-74
2024/01/31 03:17:42;;;;;;;7.70;2.13;;;7.20;99.90;;;;;;5033162;28;20021;-74
2024/01/31 03:20:10;;;;;;;8.40;2.08;;;7.10;99.90;;;;;;5032668;28;20079;-74
2024/01/31 03:22:36;;;;;;;8.35;2.22;;;7.10;99.90;;;;;;5032991;28;20018;-75
2024/01/31 03:25:03;;;;;;;7.65;1.92;;;7.00;99.90;;;;;;5032951;28;20089;-75
2024/01/31 03:27:29;;;;;;;8.20;2.50;;;7.00;99.90;;;;;;5033351;28;20017;-75
2024/01/31 03:30:02;;;;;;;6.28;2.08;;;6.90;99.90;;;;;;5032908;28;20031;-75
2024/01/31 03:32:30;;;;;;;6.07;1.80;;;6.90;99.90;;;;;;5032604;28;20095;-75
2024/01/31 03:34:59;;;;;;;8.07;2.00;;;6.80;99.90;;;;;;5032315;28;20028;-75
2024/01/31 03:37:24;;;;;;;5.40;1.70;;;6.80;99.90;;;;;;5032769;28;20056;-76
2024/01/31 03:39:50;;;;;;;8.40;2.22;;;6.80;99.90;;;;;;5032384;28;20014;-74
2024/01/31 03:42:16;;;;;;;7.75;2.33;;;6.80;99.90;;;;;;5032595;28;20079;-77
2024/01/31 03:44:41;;;;;;;5.68;2.03;;;6.80;99.90;;;;;;5033061;28;20026;-79
2024/01/31 03:47:07;;;;;;;7.80;1.90;;;6.80;99.90;;;;;;5032788;28;20025;-77
2024/01/31 03:49:33;;;;;;;6.07;1.70;;;6.80;99.90;;;;;;5032515;28;20033;-76
2024/01/31 03:51:59;;;;;;;8.93;2.00;;;6.80;99.90;;;;;;5032817;28;20027;-77
2024/01/31 03:54:25;;;;;;;7.18;1.90;;;6.90;99.90;;;;;;5031995;28;20030;-76
2024/01/31 03:56:50;;;;;;;4.72;1.63;;;6.90;99.90;;;;;;5014569;28;20029;-76
2024/01/31 03:59:16;;;;;;;7.38;1.90;;;6.90;99.90;;;;;;5032241;28;20037;-76
2024/01/31 04:01:49;;;;;;;6.07;1.60;;;6.90;99.90;;;;;;5014399;28;20077;-76
2024/01/31 04:04:18;;;;;;;5.55;1.45;;;6.90;99.90;;;;;;5012779;28;20022;-76
2024/01/31 04:06:45;;;;;;;5.35;1.52;;;6.90;99.90;;;;;;5025285;28;20398;-77
2024/01/31 04:09:11;;;;;;;5.70;1.63;;;6.90;99.90;;;;;;5031999;28;20390;-74
2024/01/31 04:11:37;;;;;;;9.10;1.70;;;6.90;99.90;;;;;;5032026;28;20052;-75
2024/01/31 04:14:02;;;;;;;9.35;2.33;;;6.90;99.90;;;;;;5031998;28;20057;-74
2024/01/31 04:16:29;;;;;;;7.65;2.00;;;6.90;99.90;;;;;;5031431;28;20554;-75
2024/01/31 04:18:54;;;;;;;6.60;2.08;;;6.80;99.90;;;;;;5031506;28;20028;-74
2024/01/31 04:21:21;;;;;;;5.00;1.60;;;6.80;99.90;;;;;;5032311;28;20022;-74
2024/01/31 04:23:47;;;;;;;7.43;2.00;;;6.80;99.90;;;;;;5030564;28;20378;-75
2024/01/31 04:26:16;;;;;;;8.02;1.95;;;6.80;99.90;;;;;;5031847;28;20026;-75
2024/01/31 04:28:41;;;;;;;6.47;1.52;;;6.70;99.90;;;;;;5031426;28;20021;-75
2024/01/31 04:31:14;;;;;;;4.03;1.40;;;6.70;99.90;;;;;;5031991;28;20387;-75
2024/01/31 04:33:40;;;;;;;5.38;1.67;;;6.70;99.90;;;;;;5031639;28;20033;-75
2024/01/31 04:36:06;;;;;;;6.82;1.63;;;6.70;99.90;;;;;;5031764;28;20036;-75
2024/01/31 04:38:34;;;;;;;4.55;1.73;;;6.70;99.90;;;;;;5031004;28;20026;-75
2024/01/31 04:41:00;;;;;;;8.85;1.80;;;6.70;99.90;;;;;;5014090;28;20097;-72
2024/01/31 04:43:26;;;;;;;7.07;1.58;;;6.70;99.90;;;;;;5031159;28;20028;-75
2024/01/31 04:45:51;;;;;;;5.28;1.55;;;6.80;99.90;;;;;;5031967;28;20045;-75
2024/01/31 04:48:20;;;;;;;8.73;2.08;;;6.80;99.90;;;;;;5031694;28;20030;-75
2024/01/31 04:50:46;;;;;;;4.35;1.50;;;6.80;99.90;;;;;;5031292;28;20021;-75
2024/01/31 04:53:14;;;;;;;8.45;1.70;;;6.80;99.90;;;;;;5031733;28;20104;-75
2024/01/31 04:55:40;;;;;;;8.13;1.67;;;6.80;99.90;;;;;;5013048;28;20080;-75
2024/01/31 04:58:05;;;;;;;5.78;1.92;;;6.80;99.90;;;;;;5031438;28;20025;-75
2024/01/31 05:00:31;;;;;;;8.57;1.90;;;6.80;99.90;;;;;;5030882;28;20030;-75
2024/01/31 05:03:00;;;;;;;6.55;2.22;;;6.70;99.90;;;;;;5013897;28;20513;-76
2024/01/31 05:05:25;;;;;;;6.63;1.60;;;6.70;99.90;;;;;;5030887;28;20386;-75
2024/01/31 05:07:54;;;;;;;6.07;1.52;;;6.70;99.90;;;;;;5031272;28;20105;-75
2024/01/31 05:10:20;;;;;;;7.68;2.08;;;6.70;99.90;;;;;;5030746;28;20630;-75
2024/01/31 05:12:45;;;;;;;7.00;1.70;;;6.70;99.90;;;;;;5031123;28;20101;-75
2024/01/31 05:15:11;;;;;;;4.30;1.70;;;6.70;99.90;;;;;;5031174;28;20018;-75
2024/01/31 05:17:39;;;;;;;5.72;1.85;;;6.70;99.90;;;;;;5013324;28;20092;-75
2024/01/31 05:20:05;;;;;;;8.70;1.95;;;6.70;99.90;;;;;;5013060;28;20025;-75
2024/01/31 05:22:34;;;;;;;5.22;1.60;;;6.70;99.90;;;;;;5012575;28;20021;-74
2024/01/31 05:24:59;;;;;;;6.82;1.70;;;6.70;99.90;;;;;;5030788;28;20038;-75
2024/01/31 05:27:25;;;;;;;5.70;1.80;;;6.70;99.90;;;;;;5031186;28;20025;-75
2024/01/31 05:29:59;;;;;;;4.80;1.75;;;6.70;99.90;;;;;;5031007;28;20088;-74
2024/01/31 05:32:24;;;;;;;3.33;1.63;;;6.70;99.90;;;;;;5031144;28;20034;-75
2024/01/31 05:34:50;;;;;;;5.07;1.65;;;6.80;99.90;;;;;;5031938;28;20049;-75
2024/01/31 05:37:16;;;;;;;7.78;2.00;;;6.80;99.90;;;;;;5034993;28;20109;-75
2024/01/31 05:39:44;;;;;;;14.43;1.80;;;6.80;99.90;;;;;;5034697;28;20013;-75
2024/01/31 05:42:10;;;;;;;7.40;2.28;;;6.90;99.90;;;;;;5017147;28;20085;-75
2024/01/31 05:44:39;;;;;;;8.98;2.10;;;6.90;99.90;;;;;;5034445;28;20057;-75
2024/01/31 05:47:04;;;;;;;8.27;2.22;;;6.90;99.90;;;;;;5034882;28;20018;-75
2024/01/31 05:49:30;;;;;;;6.82;2.33;;;6.90;99.90;;;;;;5034142;28;20055;-75
2024/01/31 05:51:58;;;;;;;5.38;1.85;;;6.90;99.90;;;;;;5034787;28;20077;-75
2024/01/31 05:54:24;;;;;;;5.90;1.92;;;6.80;99.90;;;;;;5034611;28;20109;-75
2024/01/31 05:56:53;;;;;;;6.50;1.60;;;6.80;99.90;;;;;;5034467;28;20486;-76
2024/01/31 05:59:19;;;;;;;6.07;1.75;;;6.70;99.90;;;;;;5034340;28;20025;-76
2024/01/31 06:01:44;;;;;;;6.78;1.70;;;6.70;99.90;;;;;;5034807;28;20485;-76
2024/01/31 06:04:10;;;;;;;6.78;1.80;;;6.70;99.90;;;;;;5034438;28;20037;-76
2024/01/31 06:06:36;;;;;;;7.22;1.92;;;6.70;99.90;;;;;;5034685;28;20108;-75
2024/01/31 06:09:03;;;;;;;7.03;1.95;;;6.70;99.90;;;;;;5034028;28;20029;-76
2024/01/31 06:11:32;;;;;;;5.93;2.05;;;6.70;99.90;;;;;;5034429;28;20025;-74
2024/01/31 06:13:57;;;;;;;7.05;2.17;;;6.70;99.90;;;;;;5016026;28;20037;-74
2024/01/31 06:16:23;;;;;;;4.28;1.65;;;6.70;99.90;;;;;;5033493;28;20406;-75
2024/01/31 06:18:52;;;;;;;4.75;1.67;;;6.70;99.90;;;;;;5015009;28;20033;-75
2024/01/31 06:21:18;;;;;;;5.55;1.83;;;6.70;99.90;;;;;;5034279;28;20032;-75
2024/01/31 06:23:43;;;;;;;6.78;1.83;;;6.70;99.90;;;;;;5033587;28;20539;-75
2024/01/31 06:26:12;;;;;;;6.00;2.05;;;6.60;99.90;;;;;;5034023;28;20144;-75
2024/01/31 06:28:38;;;;;;;4.57;1.90;;;6.60;99.90;;;;;;5034068;28;20076;-77
2024/01/31 06:31:24;;;;;;;6.70;1.77;;;6.60;99.90;;;;;;5033944;28;20503;-76
2024/01/31 06:33:50;;;;;;;5.00;2.10;;;6.60;99.90;;;;;;5025645;28;20506;-76
2024/01/31 06:36:20;;;;;;;3.08;1.92;;;6.60;99.90;;;;;;5033711;28;20051;-76
2024/01/31 06:38:49;;;;;;;4.30;2.25;;;6.60;99.90;;;;;;5033597;28;20541;-75
2024/01/31 06:41:16;;;;;;;5.18;2.60;;;6.60;99.90;;;;;;5033760;28;20026;-75
2024/01/31 06:43:42;;;;;;;5.80;2.50;;;6.60;99.90;;;;;;5033267;28;20017;-75
2024/01/31 06:46:08;;;;;;;5.70;2.65;;;6.60;99.90;;;;;;5032955;28;20037;-75
2024/01/31 06:48:33;;;;;;;7.10;2.75;;;6.60;99.90;;;;;;5033348;28;20024;-75
2024/01/31 06:50:59;;;;;;;5.07;2.35;;;6.60;99.90;;;;;;5033631;28;20032;-75
2024/01/31 06:53:29;;;;;;;5.63;2.97;;;6.50;99.90;;;;;;5033358;28;20034;-75
2024/01/31 06:55:55;;;;;;;5.95;3.13;;;6.60;99.90;;;;;;5032778;28;20026;-77
2024/01/31 06:58:24;;;;;;;8.57;3.30;;;6.60;99.90;;;;;;5033769;28;20514;-75
2024/01/31 07:00:53;;;;;;;5.80;2.72;;;6.60;99.90;;;;;;5019635;28;20018;-74
2024/01/31 07:03:19;;;;;;;6.50;2.83;;;6.60;99.90;;;;;;5033318;28;20037;-75
2024/01/31 07:05:45;;;;;;;6.28;2.92;;;6.60;99.90;;;;;;5032811;28;20044;-76
2024/01/31 07:08:13;;;;;;;6.28;2.97;;;6.60;99.90;;;;;;5033356;28;20034;-75
2024/01/31 07:10:39;;;;;;;7.70;3.38;;;6.60;99.90;;;;;;5032277;28;20491;-75
2024/01/31 07:13:04;;;;;;;6.13;3.10;;;6.70;99.90;;;;;;5035504;28;20037;-75
2024/01/31 07:15:30;;;;;;;6.60;2.80;;;6.70;99.90;;;;;;5032083;28;20578;-75
2024/01/31 07:17:56;;;;;;;7.80;3.00;;;6.70;99.90;;;;;;5032857;28;20021;-75
2024/01/31 07:20:22;;;;;;;7.25;3.17;;;6.70;99.90;;;;;;5014163;28;20067;-75
2024/01/31 07:22:48;;;;;;;6.53;2.97;;;6.70;99.90;;;;;;5032989;28;20025;-75
2024/01/31 07:25:15;;;;;;;6.55;3.03;;;6.80;99.90;;;;;;5032656;28;20026;-75
2024/01/31 07:27:41;;;;;;;6.00;2.75;;;6.80;99.90;;;;;;5041855;28;20502;-75
2024/01/31 07:30:10;;;;;;;6.28;2.95;;;6.80;99.90;;;;;;5013280;28;20021;-75
2024/01/31 07:32:39;;;;;;;5.85;3.33;;;6.80;99.90;;;;;;5015308;28;20021;-75
2024/01/31 07:35:09;;;;;;;8.50;2.97;;;6.80;99.90;;;;;;5031936;28;20598;-75
2024/01/31 07:37:38;;;;;;;6.95;2.90;;;6.80;99.90;;;;;;5032594;28;20588;-75
2024/01/31 07:40:05;;;;;;;7.97;2.88;;;6.80;99.90;;;;;;5030172;28;20021;-76
2024/01/31 07:42:31;;;;;;;7.07;2.90;;;6.80;99.90;;;;;;5031831;28;20024;-76
2024/01/31 07:44:59;;;;;;;7.00;3.10;;;6.80;99.90;;;;;;5030431;28;20017;-75
2024/01/31 07:47:25;;;;;;;6.90;3.22;;;6.80;99.90;;;;;;5014559;28;20029;-75
2024/01/31 07:49:54;;;;;;;7.68;3.30;;;6.80;99.90;;;;;;5031864;28;20040;-76
2024/01/31 07:52:20;;;;;;;8.98;3.33;;;6.80;99.90;;;;;;5016443;28;20021;-75
2024/01/31 07:54:45;;;;;;;8.07;3.20;;;6.80;99.90;;;;;;5024959;28;20099;-75
2024/01/31 07:57:14;;;;;;;7.90;3.00;;;6.80;99.90;;;;;;5027799;28;20022;-75
2024/01/31 07:59:40;;;;;;;5.78;3.08;;;6.90;99.90;;;;;;5033226;28;20013;-76
2024/01/31 08:02:05;;;;;;;7.22;2.92;;;6.90;99.90;;;;;;5031926;28;20576;-76
2024/01/31 08:04:34;;;;;;;7.90;3.40;;;6.90;99.90;;;;;;5028722;28;20021;-75
2024/01/31 08:07:00;;;;;;;6.47;3.13;;;6.90;99.90;;;;;;5030300;28;20030;-76
2024/01/31 08:09:25;;;;;;;7.00;3.10;;;6.90;99.90;;;;;;5013725;28;20032;-76
2024/01/31 08:11:54;;;;;;;12.05;3.45;;;7.00;99.90;;;;;;5032025;28;20540;-76
2024/01/31 08:14:20;;;;;;;6.03;3.60;;;7.00;99.90;;;;;;5014471;28;20044;-76
2024/01/31 08:16:51;;;;;;;8.93;3.60;;;7.00;99.90;;;;;;5026778;28;20045;-75
2024/01/31 08:19:17;;;;;;;9.35;3.85;;;7.00;99.90;;;;;;5041100;28;20152;-75
2024/01/31 08:21:43;;;;;;;9.52;3.92;;;7.00;99.90;;;;;;5013825;28;20025;-76
2024/01/31 08:24:08;;;;;;;10.55;3.78;;;7.00;99.90;;;;;;5031661;28;20033;-75
2024/01/31 08:26:34;;;;;;;8.88;3.83;;;7.00;99.90;;;;;;5031340;28;20434;-75
2024/01/31 08:29:00;;;;;;;7.53;3.72;;;7.00;99.90;;;;;;5031575;28;20079;-75
2024/01/31 08:31:28;;;;;;;8.88;4.53;;;7.00;99.90;;;;;;5012951;28;20116;-76
2024/01/31 08:33:54;;;;;;;9.30;4.05;;;7.00;99.90;;;;;;5031449;28;20478;-75
2024/01/31 08:36:23;;;;;;;8.68;4.28;;;7.00;99.90;;;;;;5031028;28;20018;-75
2024/01/31 08:38:48;;;;;;;12.25;4.35;;;7.00;99.90;;;;;;5006324;28;20438;-75
2024/01/31 08:41:18;;;;;;;9.93;4.20;;;7.00;99.90;;;;;;5029647;28;20024;-76
2024/01/31 08:43:44;;;;;;;10.30;4.35;;;7.00;99.90;;;;;;5028034;28;20032;-75
2024/01/31 08:46:11;;;;;;;8.32;3.70;;;7.00;99.90;;;;;;5013413;28;20120;-76
2024/01/31 08:48:38;;;;;;;8.63;4.45;;;7.00;99.90;;;;;;5029347;28;20088;-76
2024/01/31 08:51:05;;;;;;;6.50;4.50;;;7.00;99.90;;;;;;5013245;28;20025;-76
2024/01/31 08:53:31;;;;;;;8.05;4.15;;;7.00;99.90;;;;;;5035206;28;20033;-76
2024/01/31 08:55:57;;;;;;;10.65;5.45;;;7.10;99.90;;;;;;5031235;28;20064;-76
2024/01/31 08:58:23;;;;;;;11.35;5.40;;;7.00;99.90;;;;;;5030695;28;20025;-75
2024/01/31 09:00:49;;;;;;;9.50;5.07;;;7.00;99.90;;;;;;5030782;28;20017;-74
2024/01/31 09:03:15;;;;;;;11.90;4.82;;;7.00;99.90;;;;;;5031748;28;20041;-75
2024/01/31 09:05:40;;;;;;;10.38;4.47;;;7.00;99.90;;;;;;5030465;28;20132;-75
2024/01/31 09:08:06;;;;;;;8.48;4.70;;;7.00;99.90;;;;;;5021360;28;20207;-75
2024/01/31 09:10:35;;;;;;;7.28;4.47;;;7.10;99.90;;;;;;5033552;28;20041;-76
2024/01/31 09:13:04;;;;;;;10.75;4.50;;;7.10;99.90;;;;;;5022514;28;20052;-75
2024/01/31 09:15:30;;;;;;;11.48;5.38;;;7.10;99.90;;;;;;5033750;28;20021;-75
2024/01/31 09:17:55;;;;;;;7.82;4.88;;;7.10;99.90;;;;;;5032803;28;20145;-75
2024/01/31 09:20:21;;;;;;;12.02;4.93;;;7.10;99.90;;;;;;5034248;28;20458;-75
2024/01/31 09:22:47;;;;;;;11.23;6.03;;;7.10;99.90;;;;;;5035048;28;20028;-75
2024/01/31 09:25:15;;;;;;;12.15;5.90;;;7.10;99.90;;;;;;5033862;28;20037;-75
2024/01/31 09:27:44;;;;;;;8.65;5.78;;;7.10;99.90;;;;;;5034881;28;20483;-75
2024/01/31 09:30:10;;;;;;;12.70;6.03;;;7.10;99.90;;;;;;5034633;28;20083;-76
2024/01/31 09:32:36;;;;;;;8.43;5.40;;;7.10;99.90;;;;;;5035042;28;20017;-75
2024/01/31 09:35:05;;;;;;;10.95;6.20;;;7.10;99.90;;;;;;5040714;28;20044;-76
2024/01/31 09:37:32;;;;;;;12.02;6.13;;;7.20;99.90;;;;;;5017049;28;20017;-75
2024/01/31 09:40:01;;;;;;;11.45;6.10;;;7.20;99.90;;;;;;5016910;28;20013;-72
2024/01/31 09:42:27;;;;;;;12.07;6.55;;;7.30;99.90;;;;;;5039283;28;20018;-76
2024/01/31 09:44:55;;;;;;;12.70;5.78;;;7.30;99.90;;;;;;5017974;28;20040;-76
2024/01/31 09:47:26;;;;;;;13.35;5.90;;;7.30;99.90;;;;;;5034585;28;20036;-76
2024/01/31 09:49:52;;;;;;;11.57;6.28;;;7.30;99.90;;;;;;5034412;28;20138;-75
2024/01/31 09:52:27;;;;;;;12.57;6.45;;;7.40;99.90;;;;;;5030656;28;20160;-76
2024/01/31 09:54:56;;;;;;;12.45;6.75;;;7.40;99.90;;;;;;5034617;28;20033;-76
2024/01/31 09:57:27;;;;;;;13.70;7.40;;;7.40;99.90;;;;;;5034730;28;20021;-75
2024/01/31 09:59:58;;;;;;;;;;;7.50;99.90;;;;;;5034302;28;20026;-75
2024/01/31 10:02:23;;;;;;;12.67;7.87;;;7.50;99.90;;;;;;5034535;28;20819;-76
2024/01/31 10:04:49;;;;;;;15.23;8.43;;;7.50;99.90;;;;;;5033693;28;20260;-75
2024/01/31 10:07:43;;;;;;;15.18;8.82;;;7.50;99.90;;;;;;5034444;28;20018;-75
2024/01/31 10:10:09;;;;;;;18.90;10.45;;;7.60;99.90;;;;;;5026333;28;20048;-75
2024/01/31 10:12:36;;;;;;;18.83;9.73;;;7.60;99.90;;;;;;5033922;28;20018;-76
2024/01/31 10:15:02;;;;;;;19.20;11.05;;;7.60;99.90;;;;;;5033746;28;20030;-75
2024/01/31 10:17:28;;;;;;;18.27;10.45;;;7.60;99.90;;;;;;5033642;28;20424;-75
2024/01/31 10:19:54;;;;;;;18.52;10.88;;;7.70;99.90;;;;;;5033539;28;20113;-75
2024/01/31 10:22:19;;;;;;;22.48;11.63;;;7.70;99.90;;;;;;5033208;28;20028;-74
2024/01/31 10:24:48;;;;;;;22.20;12.32;;;7.70;99.90;;;;;;5015911;28;20558;-76
2024/01/31 10:27:20;;;;;;;26.52;13.02;;;7.70;99.90;;;;;;5016016;28;20200;-75
2024/01/31 10:29:47;;;;;;;25.00;13.45;;;7.70;99.90;;;;;;5031764;28;20025;-77
2024/01/31 10:32:15;;;;;;;29.25;13.95;;;7.70;99.90;;;;;;5033584;28;20046;-75
2024/01/31 10:34:42;;;;;;;27.08;14.00;;;7.70;99.90;;;;;;5029273;28;20096;-76
2024/01/31 10:37:09;;;;;;;27.38;14.65;;;7.70;99.90;;;;;;5033880;28;20081;-75
2024/01/31 10:39:39;;;;;;;25.88;15.05;;;7.60;99.90;;;;;;5033082;28;20026;-75
2024/01/31 10:42:06;;;;;;;26.52;14.90;;;7.70;99.90;;;;;;5033311;28;20041;-75
2024/01/31 10:44:32;;;;;;;34.50;17.45;;;7.70;99.90;;;;;;5033707;28;20108;-76
2024/01/31 10:46:58;;;;;;;29.88;16.15;;;7.70;99.90;;;;;;5033658;28;20033;-76
2024/01/31 10:49:24;;;;;;;33.58;17.63;;;7.70;99.90;;;;;;5016077;28;20108;-75
2024/01/31 10:51:53;;;;;;;31.40;17.02;;;7.70;99.90;;;;;;5032822;28;20065;-75
2024/01/31 10:54:27;;;;;;;36.65;19.20;;;7.70;99.90;;;;;;5034221;28;20085;-75
2024/01/31 10:56:54;;;;;;;35.35;19.20;;;7.80;99.90;;;;;;5015900;28;20387;-75
2024/01/31 10:59:19;;;;;;;38.72;18.83;;;7.70;99.90;;;;;;5033744;28;20022;-75
2024/01/31 11:01:54;;;;;;;35.17;17.45;;;7.80;99.90;;;;;;5033396;28;20021;-75
2024/01/31 11:04:24;;;;;;;40.13;20.10;;;7.80;99.90;;;;;;5020197;28;20057;-75
2024/01/31 11:06:50;;;;;;;38.72;19.42;;;7.80;99.90;;;;;;5032778;28;20037;-75
2024/01/31 11:09:23;;;;;;;37.47;18.77;;;7.80;99.90;;;;;;5026135;28;20546;-75
2024/01/31 11:12:16;;;;;;;36.97;18.58;;;7.80;99.90;;;;;;5035240;28;20036;-75
2024/01/31 11:14:50;;;;;;;39.10;19.42;;;7.80;99.90;;;;;;5016306;28;20021;-75
2024/01/31 11:17:23;;;;;;;37.05;19.30;;;7.80;99.90;;;;;;5032892;28;20511;-76
2024/01/31 11:19:53;;;;;;;38.75;19.60;;;7.80;99.90;;;;;;5032392;28;20018;-76
2024/01/31 11:22:19;;;;;;;43.53;20.00;;;7.80;99.90;;;;;;5033097;28;20533;-76
2024/01/31 11:24:47;;;;;;;39.30;20.92;;;7.80;99.90;;;;;;5033159;28;20602;-75
2024/01/31 11:27:17;;;;;;;42.00;20.85;;;7.90;99.90;;;;;;5033262;28;20071;-77
2024/01/31 11:29:45;;;;;;;37.07;19.53;;;7.90;99.90;;;;;;5032969;28;20025;-75
2024/01/31 11:32:12;;;;;;;34.53;17.95;;;7.90;99.90;;;;;;5015289;28;20029;-76
2024/01/31 11:34:40;;;;;;;37.40;20.35;;;7.90;99.90;;;;;;5032238;28;20022;-76
2024/01/31 11:37:05;;;;;;;32.00;17.95;;;7.90;99.90;;;;;;5032407;28;20024;-76
2024/01/31 11:39:31;;;;;;;39.65;19.70;;;7.90;99.90;;;;;;5032448;28;20386;-75
2024/01/31 11:41:57;;;;;;;34.22;19.92;;;8.00;99.90;;;;;;5032431;28;20018;-75
2024/01/31 11:44:23;;;;;;;35.60;18.30;;;8.00;99.90;;;;;;5032899;28;20022;-76
2024/01/31 11:46:54;;;;;;;32.55;18.45;;;8.00;99.90;;;;;;5032384;28;20517;-76
2024/01/31 11:49:20;;;;;;;40.38;19.05;;;8.00;99.90;;;;;;5032413;28;20033;-76
2024/01/31 11:51:46;;;;;;;37.10;19.60;;;8.00;99.90;;;;;;5032150;28;20028;-75
2024/01/31 11:54:12;;;;;;;34.65;18.98;;;8.00;99.90;;;;;;5032208;28;20038;-76
2024/01/31 11:56:39;;;;;;;36.28;19.77;;;8.00;99.90;;;;;;5032140;28;20025;-76
2024/01/31 11:59:08;;;;;;;30.65;18.27;;;8.00;99.90;;;;;;5036639;28;20022;-75
2024/01/31 12:01:41;;;;;;;28.67;16.13;;;8.00;99.90;;;;;;5032205;28;20044;-76
2024/01/31 12:04:11;;;;;;;28.75;16.90;;;8.00;99.90;;;;;;5032720;28;20029;-76
2024/01/31 12:06:37;;;;;;;26.85;15.65;;;8.10;99.90;;;;;;5032345;28;20025;-76
2024/01/31 12:09:03;;;;;;;33.05;16.73;;;8.10;99.90;;;;;;5011215;28;20029;-76
2024/01/31 12:11:29;;;;;;;29.25;16.08;;;8.10;99.90;;;;;;5014258;28;20526;-75
2024/01/31 12:13:54;;;;;;;29.70;15.55;;;8.10;99.90;;;;;;5020786;28;20053;-75
2024/01/31 12:16:20;;;;;;;25.25;15.32;;;8.10;99.90;;;;;;5015118;28;20058;-76
2024/01/31 12:19:07;;;;;;;27.13;14.52;;;8.10;99.90;;;;;;5031312;28;20073;-75
2024/01/31 12:21:45;;;;;;;20.45;13.32;;;8.10;99.90;;;;;;5032143;28;20044;-76
2024/01/31 12:24:10;;;;;;;20.73;13.27;;;8.10;99.90;;;;;;5031782;28;20053;-76
2024/01/31 12:26:37;;;;;;;16.15;10.63;;;8.20;99.90;;;;;;5031348;28;20107;-76
2024/01/31 12:29:05;;;;;;;15.82;10.68;;;8.20;99.90;;;;;;5013787;28;20052;-76
2024/01/31 12:31:31;;;;;;;15.15;10.60;;;8.20;99.90;;;;;;5030834;28;20065;-76
2024/01/31 12:34:00;;;;;;;16.65;10.88;;;8.20;99.90;;;;;;5031941;28;20040;-76
2024/01/31 12:36:25;;;;;;;17.02;11.43;;;8.20;99.90;;;;;;5035762;28;20032;-76
2024/01/31 12:38:54;;;;;;;18.58;11.77;;;8.20;99.90;;;;;;5031269;28;20029;-76
2024/01/31 12:41:19;;;;;;;17.00;11.55;;;8.10;99.90;;;;;;5031246;28;20014;-75
2024/01/31 12:43:45;;;;;;;17.02;10.88;;;8.10;99.90;;;;;;5012358;28;20146;-75
2024/01/31 12:46:11;;;;;;;13.85;9.30;;;8.10;99.90;;;;;;5031146;28;20047;-76
2024/01/31 12:48:41;;;;;;;11.70;8.93;;;8.20;99.90;;;;;;5031279;28;20021;-75
2024/01/31 12:51:09;;;;;;;21.63;14.68;;;8.20;99.90;;;;;;5031439;28;20068;-75
2024/01/31 12:53:35;;;;;;;32.80;19.83;;;8.10;99.90;;;;;;5031321;28;20487;-75